sensor_id;sensor_type;location;lat;lon;timestamp;P1;durP1;ratioP1;P2;durP2;ratioP2
65234;SDS011;51820;48.374;10.930;2022-10-31T00:01:36;19.45;;;8.27;;
65234;SDS011;51820;48.374;10.930;2022-10-31T00:04:05;20.70;;;8.40;;
65234;SDS011;51820;48.374;10.930;2022-10-31T00:06:34;18.73;;;8.30;;
65234;SDS011;51820;48.374;10.930;2022-10-31T00:09:03;17.53;;;7.50;;
65234;SDS011;51820;48.374;10.930;2022-10-31T00:11:32;23.73;;;8.25;;
65234;SDS011;51820;48.374;10.930;2022-10-31T00:14:00;16.55;;;8.02;;
65234;SDS011;51820;48.374;10.930;2022-10-31T00:19:26;15.95;;;7.70;;
65234;SDS011;51820;48.374;10.930;2022-10-31T00:22:50;19.10;;;7.20;;
65234;SDS011;51820;48.374;10.930;2022-10-31T00:25:18;20.10;;;6.90;;
65234;SDS011;51820;48.374;10.930;2022-10-31T00:27:47;15.85;;;7.80;;
65234;SDS011;51820;48.374;10.930;2022-10-31T00:30:16;20.40;;;7.80;;
65234;SDS011;51820;48.374;10.930;2022-10-31T00:32:45;16.50;;;7.28;;
65234;SDS011;51820;48.374;10.930;2022-10-31T00:35:16;17.87;;;7.83;;
65234;SDS011;51820;48.374;10.930;2022-10-31T00:37:44;18.60;;;7.57;;
65234;SDS011;51820;48.374;10.930;2022-10-31T00:40:12;17.30;;;6.68;;
65234;SDS011;51820;48.374;10.930;2022-10-31T00:42:41;15.57;;;6.35;;
65234;SDS011;51820;48.374;10.930;2022-10-31T00:45:10;19.98;;;6.50;;
65234;SDS011;51820;48.374;10.930;2022-10-31T00:47:38;13.50;;;6.20;;
65234;SDS011;51820;48.374;10.930;2022-10-31T00:50:08;18.15;;;6.88;;
65234;SDS011;51820;48.374;10.930;2022-10-31T00:52:37;15.52;;;7.15;;
65234;SDS011;51820;48.374;10.930;2022-10-31T00:55:05;17.60;;;6.90;;
65234;SDS011;51820;48.374;10.930;2022-10-31T00:57:34;19.88;;;6.20;;
65234;SDS011;51820;48.374;10.930;2022-10-31T01:00:04;17.10;;;6.83;;
65234;SDS011;51820;48.374;10.930;2022-10-31T01:02:33;20.52;;;6.80;;
65234;SDS011;51820;48.374;10.930;2022-10-31T01:05:01;12.88;;;6.25;;
65234;SDS011;51820;48.374;10.930;2022-10-31T01:07:31;14.73;;;6.35;;
65234;SDS011;51820;48.374;10.930;2022-10-31T01:10:02;17.05;;;6.47;;
65234;SDS011;51820;48.374;10.930;2022-10-31T01:12:35;13.87;;;6.60;;
65234;SDS011;51820;48.374;10.930;2022-10-31T01:15:04;17.23;;;6.55;;
65234;SDS011;51820;48.374;10.930;2022-10-31T01:17:33;15.45;;;5.90;;
65234;SDS011;51820;48.374;10.930;2022-10-31T01:20:02;14.43;;;6.07;;
65234;SDS011;51820;48.374;10.930;2022-10-31T01:22:33;15.85;;;6.07;;
65234;SDS011;51820;48.374;10.930;2022-10-31T01:25:02;12.73;;;5.87;;
65234;SDS011;51820;48.374;10.930;2022-10-31T01:27:31;13.55;;;6.43;;
65234;SDS011;51820;48.374;10.930;2022-10-31T01:29:59;15.05;;;5.85;;
65234;SDS011;51820;48.374;10.930;2022-10-31T01:32:28;15.60;;;6.10;;
65234;SDS011;51820;48.374;10.930;2022-10-31T01:34:57;15.23;;;6.00;;
65234;SDS011;51820;48.374;10.930;2022-10-31T01:37:26;20.37;;;10.77;;
65234;SDS011;51820;48.374;10.930;2022-10-31T01:39:56;18.05;;;7.18;;
65234;SDS011;51820;48.374;10.930;2022-10-31T01:42:25;14.38;;;5.68;;
65234;SDS011;51820;48.374;10.930;2022-10-31T01:44:55;16.65;;;5.50;;
65234;SDS011;51820;48.374;10.930;2022-10-31T01:47:37;14.93;;;5.82;;
65234;SDS011;51820;48.374;10.930;2022-10-31T01:50:13;13.40;;;5.10;;
65234;SDS011;51820;48.374;10.930;2022-10-31T01:52:44;17.58;;;6.00;;
65234;SDS011;51820;48.374;10.930;2022-10-31T01:55:18;15.23;;;6.15;;
65234;SDS011;51820;48.374;10.930;2022-10-31T01:57:57;13.10;;;5.57;;
65234;SDS011;51820;48.374;10.930;2022-10-31T02:00:30;18.70;;;5.63;;
65234;SDS011;51820;48.374;10.930;2022-10-31T02:02:58;14.47;;;5.20;;
65234;SDS011;51820;48.374;10.930;2022-10-31T02:05:28;16.90;;;5.60;;
65234;SDS011;51820;48.374;10.930;2022-10-31T02:08:02;16.90;;;5.22;;
65234;SDS011;51820;48.374;10.930;2022-10-31T02:10:36;14.95;;;5.47;;
65234;SDS011;51820;48.374;10.930;2022-10-31T02:13:07;16.70;;;5.00;;
65234;SDS011;51820;48.374;10.930;2022-10-31T02:15:42;18.93;;;5.80;;
65234;SDS011;51820;48.374;10.930;2022-10-31T02:18:13;14.95;;;6.05;;
65234;SDS011;51820;48.374;10.930;2022-10-31T02:20:46;16.77;;;5.32;;
65234;SDS011;51820;48.374;10.930;2022-10-31T02:23:35;13.07;;;5.18;;
65234;SDS011;51820;48.374;10.930;2022-10-31T02:26:41;16.83;;;5.80;;
65234;SDS011;51820;48.374;10.930;2022-10-31T02:32:47;15.18;;;5.40;;
65234;SDS011;51820;48.374;10.930;2022-10-31T02:35:33;16.70;;;5.25;;
65234;SDS011;51820;48.374;10.930;2022-10-31T02:38:13;16.83;;;5.97;;
65234;SDS011;51820;48.374;10.930;2022-10-31T02:40:51;14.38;;;5.57;;
65234;SDS011;51820;48.374;10.930;2022-10-31T02:43:40;13.10;;;4.93;;
65234;SDS011;51820;48.374;10.930;2022-10-31T02:46:14;19.75;;;5.05;;
65234;SDS011;51820;48.374;10.930;2022-10-31T02:48:49;19.58;;;5.60;;
65234;SDS011;51820;48.374;10.930;2022-10-31T02:51:23;13.73;;;5.38;;
65234;SDS011;51820;48.374;10.930;2022-10-31T02:53:52;14.68;;;4.93;;
65234;SDS011;51820;48.374;10.930;2022-10-31T02:56:20;11.57;;;5.10;;
65234;SDS011;51820;48.374;10.930;2022-10-31T02:58:50;14.35;;;5.78;;
65234;SDS011;51820;48.374;10.930;2022-10-31T03:04:18;15.63;;;5.03;;
65234;SDS011;51820;48.374;10.930;2022-10-31T03:07:08;12.27;;;4.97;;
65234;SDS011;51820;48.374;10.930;2022-10-31T03:09:44;18.60;;;5.03;;
65234;SDS011;51820;48.374;10.930;2022-10-31T03:12:19;11.68;;;4.85;;
65234;SDS011;51820;48.374;10.930;2022-10-31T03:14:55;15.07;;;5.13;;
65234;SDS011;51820;48.374;10.930;2022-10-31T03:17:32;12.38;;;5.07;;
65234;SDS011;51820;48.374;10.930;2022-10-31T03:23:08;12.17;;;5.17;;
65234;SDS011;51820;48.374;10.930;2022-10-31T03:25:39;14.18;;;4.90;;
65234;SDS011;51820;48.374;10.930;2022-10-31T03:28:09;18.05;;;5.13;;
65234;SDS011;51820;48.374;10.930;2022-10-31T03:30:42;18.42;;;5.07;;
65234;SDS011;51820;48.374;10.930;2022-10-31T03:33:13;12.07;;;4.68;;
65234;SDS011;51820;48.374;10.930;2022-10-31T03:35:47;14.53;;;5.47;;
65234;SDS011;51820;48.374;10.930;2022-10-31T03:38:18;15.80;;;5.13;;
65234;SDS011;51820;48.374;10.930;2022-10-31T03:40:48;13.73;;;5.30;;
65234;SDS011;51820;48.374;10.930;2022-10-31T03:43:22;13.43;;;4.68;;
65234;SDS011;51820;48.374;10.930;2022-10-31T03:45:54;16.88;;;5.00;;
65234;SDS011;51820;48.374;10.930;2022-10-31T03:48:23;12.67;;;4.63;;
65234;SDS011;51820;48.374;10.930;2022-10-31T03:50:57;13.20;;;5.15;;
65234;SDS011;51820;48.374;10.930;2022-10-31T03:53:34;13.70;;;5.05;;
65234;SDS011;51820;48.374;10.930;2022-10-31T03:56:10;15.13;;;5.30;;
65234;SDS011;51820;48.374;10.930;2022-10-31T03:58:44;14.25;;;4.70;;
65234;SDS011;51820;48.374;10.930;2022-10-31T04:01:17;14.17;;;4.87;;
65234;SDS011;51820;48.374;10.930;2022-10-31T04:03:47;11.95;;;4.95;;
65234;SDS011;51820;48.374;10.930;2022-10-31T04:06:18;13.48;;;4.55;;
65234;SDS011;51820;48.374;10.930;2022-10-31T04:08:49;13.60;;;4.47;;
65234;SDS011;51820;48.374;10.930;2022-10-31T04:11:23;13.65;;;4.80;;
65234;SDS011;51820;48.374;10.930;2022-10-31T04:14:14;16.00;;;4.37;;
65234;SDS011;51820;48.374;10.930;2022-10-31T04:16:44;13.32;;;4.97;;
65234;SDS011;51820;48.374;10.930;2022-10-31T04:19:13;13.07;;;4.85;;
65234;SDS011;51820;48.374;10.930;2022-10-31T04:21:43;11.73;;;5.35;;
65234;SDS011;51820;48.374;10.930;2022-10-31T04:24:12;11.75;;;4.72;;
65234;SDS011;51820;48.374;10.930;2022-10-31T04:26:40;12.00;;;5.07;;
65234;SDS011;51820;48.374;10.930;2022-10-31T04:29:09;12.77;;;5.25;;
65234;SDS011;51820;48.374;10.930;2022-10-31T04:31:38;12.55;;;5.15;;
65234;SDS011;51820;48.374;10.930;2022-10-31T04:34:06;11.27;;;4.43;;
65234;SDS011;51820;48.374;10.930;2022-10-31T04:36:35;13.32;;;5.63;;
65234;SDS011;51820;48.374;10.930;2022-10-31T04:39:08;12.90;;;5.27;;
65234;SDS011;51820;48.374;10.930;2022-10-31T04:41:43;11.57;;;4.95;;
65234;SDS011;51820;48.374;10.930;2022-10-31T04:44:14;11.68;;;4.32;;
65234;SDS011;51820;48.374;10.930;2022-10-31T04:46:47;12.60;;;4.82;;
65234;SDS011;51820;48.374;10.930;2022-10-31T04:49:16;17.35;;;5.00;;
65234;SDS011;51820;48.374;10.930;2022-10-31T04:51:44;13.47;;;4.60;;
65234;SDS011;51820;48.374;10.930;2022-10-31T04:54:14;13.35;;;4.88;;
65234;SDS011;51820;48.374;10.930;2022-10-31T04:56:47;14.25;;;4.80;;
65234;SDS011;51820;48.374;10.930;2022-10-31T04:59:22;15.30;;;5.07;;
65234;SDS011;51820;48.374;10.930;2022-10-31T05:01:59;10.25;;;4.20;;
65234;SDS011;51820;48.374;10.930;2022-10-31T05:04:44;11.70;;;4.57;;
65234;SDS011;51820;48.374;10.930;2022-10-31T05:07:14;13.95;;;4.80;;
65234;SDS011;51820;48.374;10.930;2022-10-31T05:09:44;10.40;;;4.50;;
65234;SDS011;51820;48.374;10.930;2022-10-31T05:12:13;14.60;;;5.68;;
65234;SDS011;51820;48.374;10.930;2022-10-31T05:15:00;9.73;;;4.50;;
65234;SDS011;51820;48.374;10.930;2022-10-31T05:18:06;12.27;;;4.33;;
65234;SDS011;51820;48.374;10.930;2022-10-31T05:20:43;11.32;;;4.18;;
65234;SDS011;51820;48.374;10.930;2022-10-31T05:23:18;13.82;;;4.57;;
65234;SDS011;51820;48.374;10.930;2022-10-31T05:25:48;15.98;;;4.30;;
65234;SDS011;51820;48.374;10.930;2022-10-31T05:28:17;13.52;;;4.75;;
65234;SDS011;51820;48.374;10.930;2022-10-31T05:30:45;11.67;;;4.13;;
65234;SDS011;51820;48.374;10.930;2022-10-31T05:33:15;11.18;;;4.30;;
65234;SDS011;51820;48.374;10.930;2022-10-31T05:35:43;13.07;;;4.85;;
65234;SDS011;51820;48.374;10.930;2022-10-31T05:38:29;13.02;;;4.18;;
65234;SDS011;51820;48.374;10.930;2022-10-31T05:41:08;17.13;;;4.70;;
65234;SDS011;51820;48.374;10.930;2022-10-31T05:43:39;17.33;;;4.60;;
65234;SDS011;51820;48.374;10.930;2022-10-31T05:46:08;13.00;;;4.55;;
65234;SDS011;51820;48.374;10.930;2022-10-31T05:49:00;16.10;;;4.20;;
65234;SDS011;51820;48.374;10.930;2022-10-31T05:51:47;9.50;;;4.07;;
65234;SDS011;51820;48.374;10.930;2022-10-31T05:54:19;15.00;;;4.75;;
65234;SDS011;51820;48.374;10.930;2022-10-31T05:59:59;12.38;;;4.50;;
65234;SDS011;51820;48.374;10.930;2022-10-31T06:02:33;15.88;;;5.10;;
65234;SDS011;51820;48.374;10.930;2022-10-31T06:05:23;17.92;;;4.72;;
65234;SDS011;51820;48.374;10.930;2022-10-31T06:07:53;12.13;;;4.75;;
65234;SDS011;51820;48.374;10.930;2022-10-31T06:10:23;14.23;;;5.07;;
65234;SDS011;51820;48.374;10.930;2022-10-31T06:12:53;15.25;;;4.90;;
65234;SDS011;51820;48.374;10.930;2022-10-31T06:15:33;14.07;;;4.70;;
65234;SDS011;51820;48.374;10.930;2022-10-31T06:18:02;12.93;;;4.40;;
65234;SDS011;51820;48.374;10.930;2022-10-31T06:20:35;20.02;;;4.60;;
65234;SDS011;51820;48.374;10.930;2022-10-31T06:23:04;14.97;;;4.33;;
65234;SDS011;51820;48.374;10.930;2022-10-31T06:25:33;12.25;;;4.15;;
65234;SDS011;51820;48.374;10.930;2022-10-31T06:28:03;13.75;;;4.28;;
65234;SDS011;51820;48.374;10.930;2022-10-31T06:30:44;15.70;;;4.07;;
65234;SDS011;51820;48.374;10.930;2022-10-31T06:33:16;16.52;;;4.90;;
65234;SDS011;51820;48.374;10.930;2022-10-31T06:35:55;15.17;;;4.57;;
65234;SDS011;51820;48.374;10.930;2022-10-31T06:38:24;20.77;;;5.47;;
65234;SDS011;51820;48.374;10.930;2022-10-31T06:40:54;15.02;;;4.55;;
65234;SDS011;51820;48.374;10.930;2022-10-31T06:43:26;11.02;;;4.38;;
65234;SDS011;51820;48.374;10.930;2022-10-31T06:46:16;15.10;;;4.80;;
65234;SDS011;51820;48.374;10.930;2022-10-31T06:48:57;12.97;;;4.53;;
65234;SDS011;51820;48.374;10.930;2022-10-31T06:51:49;16.00;;;4.70;;
65234;SDS011;51820;48.374;10.930;2022-10-31T06:54:17;15.15;;;5.05;;
65234;SDS011;51820;48.374;10.930;2022-10-31T06:56:46;14.50;;;4.95;;
65234;SDS011;51820;48.374;10.930;2022-10-31T06:59:15;12.52;;;4.80;;
65234;SDS011;51820;48.374;10.930;2022-10-31T07:02:04;15.50;;;4.83;;
65234;SDS011;51820;48.374;10.930;2022-10-31T07:04:33;15.88;;;4.70;;
65234;SDS011;51820;48.374;10.930;2022-10-31T07:07:01;11.35;;;4.78;;
65234;SDS011;51820;48.374;10.930;2022-10-31T07:09:31;15.32;;;4.60;;
65234;SDS011;51820;48.374;10.930;2022-10-31T07:12:03;15.18;;;5.07;;
65234;SDS011;51820;48.374;10.930;2022-10-31T07:14:35;17.83;;;4.57;;
65234;SDS011;51820;48.374;10.930;2022-10-31T07:17:06;17.92;;;5.65;;
65234;SDS011;51820;48.374;10.930;2022-10-31T07:19:38;13.40;;;4.90;;
65234;SDS011;51820;48.374;10.930;2022-10-31T07:22:08;12.25;;;5.45;;
65234;SDS011;51820;48.374;10.930;2022-10-31T07:24:42;16.27;;;5.47;;
65234;SDS011;51820;48.374;10.930;2022-10-31T07:27:10;13.07;;;5.30;;
65234;SDS011;51820;48.374;10.930;2022-10-31T07:29:40;14.25;;;5.13;;
65234;SDS011;51820;48.374;10.930;2022-10-31T07:32:11;11.30;;;4.30;;
65234;SDS011;51820;48.374;10.930;2022-10-31T07:34:46;19.45;;;5.78;;
65234;SDS011;51820;48.374;10.930;2022-10-31T07:37:20;12.70;;;5.18;;
65234;SDS011;51820;48.374;10.930;2022-10-31T07:39:50;14.97;;;5.50;;
65234;SDS011;51820;48.374;10.930;2022-10-31T07:42:19;12.27;;;5.30;;
65234;SDS011;51820;48.374;10.930;2022-10-31T07:44:49;15.05;;;5.35;;
65234;SDS011;51820;48.374;10.930;2022-10-31T07:47:42;12.77;;;4.88;;
65234;SDS011;51820;48.374;10.930;2022-10-31T07:50:33;14.65;;;5.47;;
65234;SDS011;51820;48.374;10.930;2022-10-31T07:53:20;16.17;;;5.87;;
65234;SDS011;51820;48.374;10.930;2022-10-31T07:55:52;18.02;;;5.55;;
65234;SDS011;51820;48.374;10.930;2022-10-31T07:58:28;15.15;;;5.47;;
65234;SDS011;51820;48.374;10.930;2022-10-31T08:00:57;15.70;;;4.60;;
65234;SDS011;51820;48.374;10.930;2022-10-31T08:03:38;13.40;;;4.72;;
65234;SDS011;51820;48.374;10.930;2022-10-31T08:06:08;12.33;;;5.10;;
65234;SDS011;51820;48.374;10.930;2022-10-31T08:08:49;15.15;;;4.80;;
65234;SDS011;51820;48.374;10.930;2022-10-31T08:11:18;15.85;;;4.93;;
65234;SDS011;51820;48.374;10.930;2022-10-31T08:13:47;12.70;;;4.28;;
65234;SDS011;51820;48.374;10.930;2022-10-31T08:16:16;13.07;;;4.40;;
65234;SDS011;51820;48.374;10.930;2022-10-31T08:18:54;16.13;;;4.80;;
65234;SDS011;51820;48.374;10.930;2022-10-31T08:21:22;15.00;;;5.60;;
65234;SDS011;51820;48.374;10.930;2022-10-31T08:23:51;17.55;;;5.18;;
65234;SDS011;51820;48.374;10.930;2022-10-31T08:26:22;12.82;;;4.50;;
65234;SDS011;51820;48.374;10.930;2022-10-31T08:28:53;12.95;;;4.47;;
65234;SDS011;51820;48.374;10.930;2022-10-31T08:31:26;12.00;;;4.83;;
65234;SDS011;51820;48.374;10.930;2022-10-31T08:34:20;15.27;;;5.20;;
65234;SDS011;51820;48.374;10.930;2022-10-31T08:37:07;11.48;;;4.50;;
65234;SDS011;51820;48.374;10.930;2022-10-31T08:39:39;12.95;;;4.85;;
65234;SDS011;51820;48.374;10.930;2022-10-31T08:42:09;19.42;;;5.00;;
65234;SDS011;51820;48.374;10.930;2022-10-31T08:44:38;12.37;;;4.67;;
65234;SDS011;51820;48.374;10.930;2022-10-31T08:47:06;14.85;;;5.35;;
65234;SDS011;51820;48.374;10.930;2022-10-31T08:49:38;11.70;;;4.80;;
65234;SDS011;51820;48.374;10.930;2022-10-31T08:52:06;16.40;;;4.90;;
65234;SDS011;51820;48.374;10.930;2022-10-31T08:54:40;14.93;;;5.32;;
65234;SDS011;51820;48.374;10.930;2022-10-31T08:57:41;13.00;;;5.67;;
65234;SDS011;51820;48.374;10.930;2022-10-31T09:00:11;15.90;;;5.90;;
65234;SDS011;51820;48.374;10.930;2022-10-31T09:02:59;15.50;;;4.90;;
65234;SDS011;51820;48.374;10.930;2022-10-31T09:05:32;13.80;;;5.10;;
65234;SDS011;51820;48.374;10.930;2022-10-31T09:08:10;17.42;;;5.80;;
65234;SDS011;51820;48.374;10.930;2022-10-31T09:10:47;17.17;;;5.90;;
65234;SDS011;51820;48.374;10.930;2022-10-31T09:13:23;17.15;;;5.55;;
65234;SDS011;51820;48.374;10.930;2022-10-31T09:16:25;12.32;;;6.22;;
65234;SDS011;51820;48.374;10.930;2022-10-31T09:18:55;15.60;;;5.68;;
65234;SDS011;51820;48.374;10.930;2022-10-31T09:21:25;18.10;;;6.35;;
65234;SDS011;51820;48.374;10.930;2022-10-31T09:23:53;16.47;;;6.33;;
65234;SDS011;51820;48.374;10.930;2022-10-31T09:26:21;18.00;;;6.30;;
65234;SDS011;51820;48.374;10.930;2022-10-31T09:29:03;16.15;;;6.30;;
65234;SDS011;51820;48.374;10.930;2022-10-31T09:31:32;11.02;;;5.53;;
65234;SDS011;51820;48.374;10.930;2022-10-31T09:34:23;17.90;;;6.38;;
65234;SDS011;51820;48.374;10.930;2022-10-31T09:37:03;17.63;;;6.70;;
65234;SDS011;51820;48.374;10.930;2022-10-31T09:39:34;15.55;;;6.45;;
65234;SDS011;51820;48.374;10.930;2022-10-31T09:42:23;17.60;;;7.50;;
65234;SDS011;51820;48.374;10.930;2022-10-31T09:45:27;18.85;;;7.50;;
65234;SDS011;51820;48.374;10.930;2022-10-31T09:48:08;17.25;;;7.10;;
65234;SDS011;51820;48.374;10.930;2022-10-31T09:51:05;17.20;;;8.00;;
65234;SDS011;51820;48.374;10.930;2022-10-31T09:54:03;25.45;;;9.40;;
65234;SDS011;51820;48.374;10.930;2022-10-31T09:56:34;21.98;;;9.90;;
65234;SDS011;51820;48.374;10.930;2022-10-31T09:59:04;17.33;;;7.43;;
65234;SDS011;51820;48.374;10.930;2022-10-31T10:01:40;20.05;;;8.90;;
65234;SDS011;51820;48.374;10.930;2022-10-31T10:04:17;21.87;;;9.03;;
65234;SDS011;51820;48.374;10.930;2022-10-31T10:07:17;16.92;;;8.38;;
65234;SDS011;51820;48.374;10.930;2022-10-31T10:10:14;20.95;;;7.18;;
65234;SDS011;51820;48.374;10.930;2022-10-31T10:13:28;22.08;;;8.35;;
65234;SDS011;51820;48.374;10.930;2022-10-31T10:16:28;22.08;;;7.70;;
65234;SDS011;51820;48.374;10.930;2022-10-31T10:19:13;17.10;;;8.20;;
65234;SDS011;51820;48.374;10.930;2022-10-31T10:21:50;18.20;;;8.52;;
65234;SDS011;51820;48.374;10.930;2022-10-31T10:24:28;17.35;;;8.13;;
65234;SDS011;51820;48.374;10.930;2022-10-31T10:31:23;17.27;;;8.50;;
65234;SDS011;51820;48.374;10.930;2022-10-31T10:34:17;19.00;;;8.83;;
65234;SDS011;51820;48.374;10.930;2022-10-31T10:37:31;22.50;;;8.75;;
65234;SDS011;51820;48.374;10.930;2022-10-31T10:40:06;20.65;;;8.82;;
65234;SDS011;51820;48.374;10.930;2022-10-31T10:42:40;19.85;;;8.55;;
65234;SDS011;51820;48.374;10.930;2022-10-31T10:45:29;21.98;;;9.88;;
65234;SDS011;51820;48.374;10.930;2022-10-31T10:48:19;18.17;;;8.37;;
65234;SDS011;51820;48.374;10.930;2022-10-31T10:50:57;19.30;;;9.02;;
65234;SDS011;51820;48.374;10.930;2022-10-31T10:53:31;20.02;;;8.93;;
65234;SDS011;51820;48.374;10.930;2022-10-31T10:56:37;17.45;;;9.88;;
65234;SDS011;51820;48.374;10.930;2022-10-31T10:59:19;22.15;;;10.23;;
65234;SDS011;51820;48.374;10.930;2022-10-31T11:01:51;21.13;;;8.67;;
65234;SDS011;51820;48.374;10.930;2022-10-31T11:04:28;21.33;;;8.60;;
65234;SDS011;51820;48.374;10.930;2022-10-31T11:06:59;21.48;;;9.18;;
65234;SDS011;51820;48.374;10.930;2022-10-31T11:09:33;17.85;;;8.95;;
65234;SDS011;51820;48.374;10.930;2022-10-31T11:12:05;20.15;;;9.90;;
65234;SDS011;51820;48.374;10.930;2022-10-31T11:14:45;16.77;;;10.23;;
65234;SDS011;51820;48.374;10.930;2022-10-31T11:20:21;19.50;;;8.93;;
65234;SDS011;51820;48.374;10.930;2022-10-31T11:23:15;17.58;;;9.25;;
65234;SDS011;51820;48.374;10.930;2022-10-31T11:25:55;23.20;;;10.00;;
65234;SDS011;51820;48.374;10.930;2022-10-31T11:28:25;26.37;;;10.07;;
65234;SDS011;51820;48.374;10.930;2022-10-31T11:30:58;21.77;;;10.50;;
65234;SDS011;51820;48.374;10.930;2022-10-31T11:33:44;23.73;;;10.13;;
65234;SDS011;51820;48.374;10.930;2022-10-31T11:36:18;21.70;;;10.18;;
65234;SDS011;51820;48.374;10.930;2022-10-31T11:38:51;18.95;;;9.15;;
65234;SDS011;51820;48.374;10.930;2022-10-31T11:41:24;23.87;;;10.43;;
65234;SDS011;51820;48.374;10.930;2022-10-31T11:43:55;24.95;;;10.40;;
65234;SDS011;51820;48.374;10.930;2022-10-31T11:46:28;22.80;;;10.32;;
65234;SDS011;51820;48.374;10.930;2022-10-31T11:49:01;18.33;;;9.48;;
65234;SDS011;51820;48.374;10.930;2022-10-31T11:51:32;26.50;;;10.00;;
65234;SDS011;51820;48.374;10.930;2022-10-31T11:54:02;26.90;;;10.70;;
65234;SDS011;51820;48.374;10.930;2022-10-31T11:56:38;21.88;;;10.60;;
65234;SDS011;51820;48.374;10.930;2022-10-31T11:59:14;22.85;;;11.35;;
65234;SDS011;51820;48.374;10.930;2022-10-31T12:01:52;27.42;;;11.07;;
65234;SDS011;51820;48.374;10.930;2022-10-31T12:04:34;24.52;;;11.10;;
65234;SDS011;51820;48.374;10.930;2022-10-31T12:07:10;23.17;;;11.13;;
65234;SDS011;51820;48.374;10.930;2022-10-31T12:09:41;24.77;;;10.68;;
65234;SDS011;51820;48.374;10.930;2022-10-31T12:12:13;24.48;;;11.43;;
65234;SDS011;51820;48.374;10.930;2022-10-31T12:14:57;20.45;;;11.05;;
65234;SDS011;51820;48.374;10.930;2022-10-31T12:17:35;19.15;;;11.48;;
65234;SDS011;51820;48.374;10.930;2022-10-31T12:20:12;19.70;;;10.67;;
65234;SDS011;51820;48.374;10.930;2022-10-31T12:23:03;26.63;;;11.18;;
65234;SDS011;51820;48.374;10.930;2022-10-31T12:26:38;22.90;;;10.77;;
65234;SDS011;51820;48.374;10.930;2022-10-31T12:29:37;21.08;;;11.40;;
65234;SDS011;51820;48.374;10.930;2022-10-31T12:32:53;23.23;;;10.95;;
65234;SDS011;51820;48.374;10.930;2022-10-31T12:35:36;24.00;;;11.60;;
65234;SDS011;51820;48.374;10.930;2022-10-31T12:38:18;19.77;;;10.98;;
65234;SDS011;51820;48.374;10.930;2022-10-31T12:41:34;19.88;;;10.75;;
65234;SDS011;51820;48.374;10.930;2022-10-31T12:44:14;21.17;;;9.82;;
65234;SDS011;51820;48.374;10.930;2022-10-31T12:47:20;17.80;;;9.90;;
65234;SDS011;51820;48.374;10.930;2022-10-31T12:50:10;20.90;;;9.60;;
65234;SDS011;51820;48.374;10.930;2022-10-31T12:52:54;22.80;;;10.68;;
65234;SDS011;51820;48.374;10.930;2022-10-31T12:55:34;22.05;;;10.65;;
65234;SDS011;51820;48.374;10.930;2022-10-31T12:58:10;21.23;;;10.00;;
65234;SDS011;51820;48.374;10.930;2022-10-31T13:00:46;24.50;;;11.50;;
65234;SDS011;51820;48.374;10.930;2022-10-31T13:03:28;21.67;;;11.37;;
65234;SDS011;51820;48.374;10.930;2022-10-31T13:06:05;20.42;;;10.30;;
65234;SDS011;51820;48.374;10.930;2022-10-31T13:08:39;20.27;;;10.10;;
65234;SDS011;51820;48.374;10.930;2022-10-31T13:11:14;19.63;;;11.20;;
65234;SDS011;51820;48.374;10.930;2022-10-31T13:13:57;20.88;;;11.18;;
65234;SDS011;51820;48.374;10.930;2022-10-31T13:16:29;25.07;;;10.20;;
65234;SDS011;51820;48.374;10.930;2022-10-31T13:19:02;21.73;;;10.45;;
65234;SDS011;51820;48.374;10.930;2022-10-31T13:21:38;22.45;;;10.48;;
65234;SDS011;51820;48.374;10.930;2022-10-31T13:24:12;22.75;;;9.88;;
65234;SDS011;51820;48.374;10.930;2022-10-31T13:26:44;17.30;;;9.90;;
65234;SDS011;51820;48.374;10.930;2022-10-31T13:29:18;20.20;;;9.90;;
65234;SDS011;51820;48.374;10.930;2022-10-31T13:31:55;23.20;;;9.85;;
65234;SDS011;51820;48.374;10.930;2022-10-31T13:34:24;20.58;;;10.40;;
65234;SDS011;51820;48.374;10.930;2022-10-31T13:37:04;16.40;;;9.65;;
65234;SDS011;51820;48.374;10.930;2022-10-31T13:39:47;20.67;;;10.48;;
65234;SDS011;51820;48.374;10.930;2022-10-31T13:42:33;17.17;;;9.87;;
65234;SDS011;51820;48.374;10.930;2022-10-31T13:45:11;17.10;;;10.35;;
65234;SDS011;51820;48.374;10.930;2022-10-31T13:47:41;24.02;;;10.13;;
65234;SDS011;51820;48.374;10.930;2022-10-31T13:50:20;19.02;;;10.25;;
65234;SDS011;51820;48.374;10.930;2022-10-31T13:52:50;20.48;;;10.02;;
65234;SDS011;51820;48.374;10.930;2022-10-31T13:55:34;18.87;;;10.47;;
65234;SDS011;51820;48.374;10.930;2022-10-31T13:58:03;22.15;;;10.88;;
65234;SDS011;51820;48.374;10.930;2022-10-31T14:00:32;21.80;;;10.10;;
65234;SDS011;51820;48.374;10.930;2022-10-31T14:03:02;18.70;;;10.20;;
65234;SDS011;51820;48.374;10.930;2022-10-31T14:05:31;17.08;;;10.82;;
65234;SDS011;51820;48.374;10.930;2022-10-31T14:08:04;21.33;;;10.80;;
65234;SDS011;51820;48.374;10.930;2022-10-31T14:10:46;19.48;;;10.55;;
65234;SDS011;51820;48.374;10.930;2022-10-31T14:13:18;21.77;;;10.98;;
65234;SDS011;51820;48.374;10.930;2022-10-31T14:15:53;20.17;;;10.35;;
65234;SDS011;51820;48.374;10.930;2022-10-31T14:18:24;19.95;;;10.82;;
65234;SDS011;51820;48.374;10.930;2022-10-31T14:20:59;17.60;;;10.57;;
65234;SDS011;51820;48.374;10.930;2022-10-31T14:23:37;21.00;;;10.73;;
65234;SDS011;51820;48.374;10.930;2022-10-31T14:26:16;17.55;;;10.13;;
65234;SDS011;51820;48.374;10.930;2022-10-31T14:28:48;18.55;;;10.48;;
65234;SDS011;51820;48.374;10.930;2022-10-31T14:31:29;19.85;;;10.70;;
65234;SDS011;51820;48.374;10.930;2022-10-31T14:34:17;21.87;;;10.47;;
65234;SDS011;51820;48.374;10.930;2022-10-31T14:39:45;16.67;;;10.15;;
65234;SDS011;51820;48.374;10.930;2022-10-31T14:42:27;16.42;;;10.23;;
65234;SDS011;51820;48.374;10.930;2022-10-31T14:45:12;17.83;;;11.13;;
65234;SDS011;51820;48.374;10.930;2022-10-31T14:47:52;18.73;;;11.37;;
65234;SDS011;51820;48.374;10.930;2022-10-31T14:50:41;16.83;;;10.25;;
65234;SDS011;51820;48.374;10.930;2022-10-31T14:53:14;21.80;;;11.25;;
65234;SDS011;51820;48.374;10.930;2022-10-31T14:55:49;18.27;;;10.50;;
65234;SDS011;51820;48.374;10.930;2022-10-31T14:58:20;17.65;;;10.60;;
65234;SDS011;51820;48.374;10.930;2022-10-31T15:00:51;19.20;;;10.90;;
65234;SDS011;51820;48.374;10.930;2022-10-31T15:03:24;18.83;;;10.63;;
65234;SDS011;51820;48.374;10.930;2022-10-31T15:05:59;20.08;;;11.52;;
65234;SDS011;51820;48.374;10.930;2022-10-31T15:08:35;20.42;;;11.90;;
65234;SDS011;51820;48.374;10.930;2022-10-31T15:11:11;17.60;;;10.90;;
65234;SDS011;51820;48.374;10.930;2022-10-31T15:13:42;19.47;;;11.10;;
65234;SDS011;51820;48.374;10.930;2022-10-31T15:16:14;17.42;;;10.75;;
65234;SDS011;51820;48.374;10.930;2022-10-31T15:18:49;17.35;;;10.70;;
65234;SDS011;51820;48.374;10.930;2022-10-31T15:21:20;19.70;;;11.35;;
65234;SDS011;51820;48.374;10.930;2022-10-31T15:23:54;18.65;;;11.45;;
65234;SDS011;51820;48.374;10.930;2022-10-31T15:26:27;20.93;;;10.97;;
65234;SDS011;51820;48.374;10.930;2022-10-31T15:29:00;29.08;;;11.45;;
65234;SDS011;51820;48.374;10.930;2022-10-31T15:31:31;18.88;;;10.77;;
65234;SDS011;51820;48.374;10.930;2022-10-31T15:34:00;16.90;;;10.00;;
65234;SDS011;51820;48.374;10.930;2022-10-31T15:36:31;16.75;;;9.68;;